Time;durP1;ratioP1;P1;durP2;ratioP2;P2;SDS_P1;SDS_P2;PMS_P1;PMS_P2;Temp;Humidity;BMP_temperature;BMP_pressure;BME280_temperature;BME280_humidity;BME280_pressure;Samples;Min_cycle;Max_cycle;Signal;HPM_P1;HPM_P2
2023/05/16 00:00:48;;;;;;;11.25;9.02;;;;;;;14.87;100.00;99864.13;5107947;28;20031;-69
2023/05/16 00:03:14;;;;;;;13.90;11.52;;;;;;;14.97;100.00;99875.59;5109775;28;20697;-68
2023/05/16 00:05:39;;;;;;;15.80;12.85;;;;;;;14.91;100.00;99857.38;5109798;28;20071;-69
2023/05/16 00:08:05;;;;;;;15.18;13.57;;;;;;;14.99;100.00;99870.84;5109873;28;20051;-68
2023/05/16 00:10:30;;;;;;;16.35;13.98;;;;;;;14.90;100.00;99861.06;5109747;28;20023;-68
2023/05/16 00:12:56;;;;;;;15.13;13.13;;;;;;;14.99;100.00;99880.81;5100842;28;20031;-68
2023/05/16 00:15:23;;;;;;;15.82;13.75;;;;;;;14.99;100.00;99886.22;5110221;28;20490;-69
2023/05/16 00:17:49;;;;;;;17.30;13.82;;;;;;;14.97;100.00;99883.69;5110104;28;20035;-69
2023/05/16 00:20:16;;;;;;;14.73;13.10;;;;;;;14.93;100.00;99885.03;5110150;28;20030;-68
2023/05/16 00:22:42;;;;;;;16.80;13.55;;;;;;;14.95;100.00;99885.72;5110306;28;20031;-68
2023/05/16 00:25:08;;;;;;;13.73;12.32;;;;;;;14.95;100.00;99890.25;5110220;28;20031;-69
2023/05/16 00:27:34;;;;;;;13.85;11.95;;;;;;;14.96;100.00;99895.50;5096595;28;20051;-69
2023/05/16 00:30:01;;;;;;;13.07;11.43;;;;;;;14.85;100.00;99887.75;5109980;28;20359;-68
2023/05/16 00:32:27;;;;;;;13.32;10.95;;;;;;;14.93;100.00;99901.22;5109690;28;20124;-64
2023/05/16 00:34:52;;;;;;;14.13;10.68;;;;;;;14.96;100.00;99905.47;5109337;28;20497;-64
2023/05/16 00:37:17;;;;;;;12.48;10.73;;;;;;;14.95;100.00;99909.16;5099708;28;20055;-64
2023/05/16 00:39:43;;;;;;;12.77;11.02;;;;;;;14.86;100.00;99900.25;5108800;28;20073;-64
2023/05/16 00:42:08;;;;;;;11.68;10.13;;;;;;;14.74;100.00;99887.28;5108832;28;20563;-64
2023/05/16 00:44:34;;;;;;;12.57;10.38;;;;;;;14.94;100.00;99919.16;5108915;28;20031;-64
2023/05/16 00:47:01;;;;;;;13.20;10.50;;;;;;;14.93;100.00;99920.13;5098795;28;20027;-64
2023/05/16 00:49:27;;;;;;;12.13;9.93;;;;;;;14.94;100.00;99907.50;5108783;28;20035;-64
2023/05/16 00:51:53;;;;;;;10.48;8.88;;;;;;;14.80;100.00;99876.63;5108823;28;20134;-63
2023/05/16 00:54:24;;;;;;;11.93;9.63;;;;;;;14.78;100.00;99853.53;5108519;28;20106;-64
2023/05/16 00:56:50;;;;;;;10.23;8.70;;;;;;;14.87;100.00;99857.91;5108539;28;20016;-65
2023/05/16 00:59:16;;;;;;;11.10;7.82;;;;;;;14.91;100.00;99860.06;5108825;28;20541;-65
2023/05/16 01:01:45;;;;;;;10.07;8.05;;;;;;;14.81;100.00;99845.94;5108476;28;20055;-65
2023/05/16 01:04:11;;;;;;;11.77;8.30;;;;;;;14.88;100.00;99867.66;5108667;28;20387;-65
2023/05/16 01:06:36;;;;;;;10.52;7.60;;;;;;;14.86;100.00;99859.75;5109492;28;20035;-69
2023/05/16 01:09:02;;;;;;;9.32;8.13;;;;;;;14.86;100.00;99864.28;5109240;28;20027;-69
2023/05/16 01:11:52;;;;;;;11.60;8.77;;;;;;;14.85;100.00;99868.88;5109736;28;20024;-69
2023/05/16 01:14:20;;;;;;;8.48;7.30;;;;;;;14.83;100.00;99867.38;5109603;28;20704;-69
2023/05/16 01:16:58;;;;;;;12.35;9.18;;;;;;;14.83;100.00;99884.38;5109065;28;20027;-64
2023/05/16 01:19:59;;;;;;;11.48;9.40;;;;;;;14.81;100.00;99872.94;5108947;28;20046;-65
2023/05/16 01:22:34;;;;;;;11.07;9.13;;;;;;;14.80;100.00;99882.03;5107599;28;20036;-65
2023/05/16 01:25:36;;;;;;;12.10;9.57;;;;;;;14.81;100.00;99896.38;5102966;28;20036;-65
2023/05/16 01:28:03;;;;;;;11.18;9.75;;;;;;;14.71;100.00;99861.47;5110044;28;20130;-64
2023/05/16 01:30:37;;;;;;;12.40;10.63;;;;;;;14.82;100.00;99874.59;5107075;28;20020;-64
2023/05/16 01:33:03;;;;;;;14.50;10.88;;;;;;;14.80;100.00;99868.53;5112195;28;20071;-65
2023/05/16 01:35:30;;;;;;;13.10;11.38;;;;;;;14.81;100.00;99867.53;5112371;28;20035;-64
2023/05/16 01:38:15;;;;;;;13.40;10.90;;;;;;;14.80;100.00;99846.94;5112038;28;20027;-64
2023/05/16 01:41:02;;;;;;;14.52;11.65;;;;;;;14.70;100.00;99832.78;5112382;28;20102;-64
2023/05/16 01:43:44;;;;;;;14.60;11.82;;;;;;;14.73;100.00;99839.69;5111838;28;20073;-63
2023/05/16 01:46:13;;;;;;;14.98;12.60;;;;;;;14.77;100.00;99847.28;5110021;28;20039;-64
2023/05/16 01:48:50;;;;;;;17.40;12.90;;;;;;;14.71;100.00;99828.25;5097400;28;20039;-64
2023/05/16 01:51:16;;;;;;;18.02;13.02;;;;;;;14.67;100.00;99824.22;5103371;28;20046;-64
2023/05/16 01:53:44;;;;;;;16.40;13.13;;;;;;;14.74;100.00;99838.69;5111869;28;20515;-64
2023/05/16 01:56:14;;;;;;;17.08;13.30;;;;;;;14.76;100.00;99847.44;5112096;28;20123;-64
2023/05/16 01:58:40;;;;;;;15.52;12.93;;;;;;;14.65;100.00;99823.53;5109726;28;20036;-64
2023/05/16 02:01:06;;;;;;;15.82;13.52;;;;;;;14.77;100.00;99841.88;5111588;28;20494;-64
2023/05/16 02:03:32;;;;;;;17.10;14.15;;;;;;;14.75;100.00;99833.13;5112137;28;20020;-64
2023/05/16 02:05:59;;;;;;;15.18;12.70;;;;;;;14.73;100.00;99843.25;5111875;28;20085;-65
2023/05/16 02:08:25;;;;;;;16.63;13.60;;;;;;;14.75;100.00;99867.38;5111981;28;20028;-64
2023/05/16 02:10:51;;;;;;;16.15;13.82;;;;;;;14.71;100.00;99863.34;5111643;28;20038;-64
2023/05/16 02:13:17;;;;;;;16.02;13.15;;;;;;;14.71;100.00;99860.63;5111584;28;20087;-65
2023/05/16 02:15:43;;;;;;;14.88;13.10;;;;;;;14.70;100.00;99862.47;5111542;28;20028;-65
2023/05/16 02:18:08;;;;;;;15.35;12.20;;;;;;;14.67;100.00;99846.63;5111598;28;20028;-65
2023/05/16 02:20:34;;;;;;;14.10;12.00;;;;;;;14.70;100.00;99829.25;5111801;28;20031;-64
2023/05/16 02:23:02;;;;;;;14.15;12.20;;;;;;;14.70;100.00;99827.38;5111617;28;20032;-64
2023/05/16 02:25:27;;;;;;;17.38;12.38;;;;;;;14.69;100.00;99836.50;5111525;28;20084;-64
2023/05/16 02:27:53;;;;;;;14.73;12.07;;;;;;;14.69;100.00;99824.84;5111269;28;20040;-69
2023/05/16 02:30:18;;;;;;;13.27;11.65;;;;;;;14.60;100.00;99786.25;5111436;28;20495;-69
2023/05/16 02:32:44;;;;;;;14.32;12.45;;;;;;;14.66;100.00;99820.66;5111635;28;20046;-69
2023/05/16 02:35:10;;;;;;;14.75;11.98;;;;;;;14.52;100.00;99782.75;5111565;28;20134;-69
2023/05/16 02:37:36;;;;;;;15.43;12.32;;;;;;;14.62;100.00;99796.88;5110692;28;20070;-69
2023/05/16 02:40:06;;;;;;;13.95;12.38;;;;;;;14.65;100.00;99796.53;5111325;28;20491;-69
2023/05/16 02:42:31;;;;;;;15.70;12.82;;;;;;;14.47;100.00;99785.94;5099062;28;20034;-69
2023/05/16 02:44:57;;;;;;;18.90;13.43;;;;;;;14.43;100.00;99787.31;5105950;28;20364;-69
2023/05/16 02:47:22;;;;;;;14.50;12.45;;;;;;;14.42;100.00;99776.69;5111327;28;20031;-68
2023/05/16 02:49:48;;;;;;;15.93;12.60;;;;;;;14.48;100.00;99787.63;5111283;28;20024;-68
2023/05/16 02:52:13;;;;;;;16.02;13.15;;;;;;;14.56;100.00;99803.81;5111603;28;20031;-68
2023/05/16 02:54:39;;;;;;;17.42;13.23;;;;;;;14.51;100.00;99794.56;5102020;28;20039;-68
2023/05/16 02:57:04;;;;;;;14.32;12.65;;;;;;;14.57;100.00;99816.28;5110994;28;20024;-68
2023/05/16 02:59:29;;;;;;;14.38;12.88;;;;;;;14.57;100.00;99820.88;5111281;28;20131;-69
2023/05/16 03:01:55;;;;;;;16.25;13.07;;;;;;;14.50;100.00;99812.59;5110695;28;20027;-69
2023/05/16 03:04:21;;;;;;;15.07;12.70;;;;;;;14.49;100.00;99812.75;5111184;28;20066;-68
2023/05/16 03:06:47;;;;;;;18.65;13.52;;;;;;;14.50;100.00;99804.50;5110892;28;20024;-68
2023/05/16 03:09:12;;;;;;;15.52;12.93;;;;;;;14.58;100.00;99822.53;5110587;28;20031;-68
2023/05/16 03:11:38;;;;;;;13.57;12.05;;;;;;;14.51;100.00;99808.88;5103395;28;20085;-69
2023/05/16 03:14:04;;;;;;;13.40;12.00;;;;;;;14.59;100.00;99822.38;5110275;28;20040;-69
2023/05/16 03:16:30;;;;;;;15.77;12.35;;;;;;;14.59;100.00;99819.66;5111368;28;20024;-69
2023/05/16 03:18:55;;;;;;;14.00;12.25;;;;;;;14.54;100.00;99796.91;5110682;28;20400;-68
2023/05/16 03:21:21;;;;;;;14.30;12.35;;;;;;;14.58;100.00;99796.41;5099252;28;20380;-68
2023/05/16 03:23:46;;;;;;;12.93;11.50;;;;;;;14.56;100.00;99789.47;5110757;28;20042;-68
2023/05/16 03:26:12;;;;;;;12.35;10.80;;;;;;;14.60;100.00;99790.81;5110330;28;20035;-68
2023/05/16 03:28:37;;;;;;;13.45;11.30;;;;;;;14.56;100.00;99792.16;5110674;28;20032;-69
2023/05/16 03:31:03;;;;;;;12.13;10.52;;;;;;;14.53;100.00;99789.81;5110034;28;20039;-68
2023/05/16 03:33:28;;;;;;;12.77;11.05;;;;;;;14.60;100.00;99804.28;5110770;28;20057;-68
2023/05/16 03:35:54;;;;;;;12.07;10.73;;;;;;;14.57;100.00;99802.78;5109558;28;20031;-68
2023/05/16 03:38:20;;;;;;;11.35;10.15;;;;;;;14.56;100.00;99814.59;5110376;28;20104;-68
2023/05/16 03:40:45;;;;;;;12.73;9.95;;;;;;;14.57;100.00;99832.47;5109774;28;20020;-68
2023/05/16 03:43:11;;;;;;;12.18;10.07;;;;;;;14.57;100.00;99839.75;5109670;28;20038;-69
2023/05/16 03:45:36;;;;;;;11.85;9.93;;;;;;;14.49;100.00;99808.22;5109937;28;20039;-69
2023/05/16 03:48:02;;;;;;;11.65;9.73;;;;;;;14.52;100.00;99820.53;5109731;28;20391;-69
2023/05/16 03:50:27;;;;;;;12.23;9.85;;;;;;;14.43;100.00;99808.91;5109515;28;20031;-69
2023/05/16 03:52:53;;;;;;;12.82;10.18;;;;;;;14.49;100.00;99823.56;5109964;28;20056;-69
2023/05/16 03:55:19;;;;;;;11.77;9.70;;;;;;;14.49;100.00;99816.31;5093578;28;20293;-69
2023/05/16 03:57:46;;;;;;;11.32;9.82;;;;;;;14.54;100.00;99824.72;5109745;28;20032;-69
2023/05/16 04:00:12;;;;;;;13.18;9.85;;;;;;;14.58;100.00;99833.34;5098375;28;20033;-69
2023/05/16 04:02:42;;;;;;;12.55;9.95;;;;;;;14.59;100.00;99830.47;5110211;28;20023;-69
2023/05/16 04:05:09;;;;;;;12.02;9.27;;;;;;;14.45;100.00;99796.06;5110286;28;20027;-69
2023/05/16 04:07:35;;;;;;;12.30;9.23;;;;;;;14.55;100.00;99810.25;5110410;28;20035;-69
2023/05/16 04:10:01;;;;;;;10.90;9.60;;;;;;;14.58;100.00;99825.22;5109883;28;20526;-69
2023/05/16 04:12:26;;;;;;;13.25;9.70;;;;;;;14.54;100.00;99823.91;5094828;28;20035;-69
2023/05/16 04:14:52;;;;;;;12.02;9.90;;;;;;;14.58;100.00;99818.00;5110016;28;20035;-69
2023/05/16 04:17:17;;;;;;;11.27;9.45;;;;;;;14.61;100.00;99824.88;5110235;28;20027;-68
2023/05/16 04:19:42;;;;;;;12.13;9.23;;;;;;;14.60;100.00;99823.19;5110259;28;20042;-69
2023/05/16 04:22:08;;;;;;;10.25;9.05;;;;;;;14.60;100.00;99813.25;5110060;28;20032;-68
2023/05/16 04:24:33;;;;;;;13.88;9.45;;;;;;;14.54;100.00;99805.00;5109978;28;20039;-69
2023/05/16 04:27:00;;;;;;;11.57;9.93;;;;;;;14.62;100.00;99818.47;5106997;28;20083;-68
2023/05/16 04:29:25;;;;;;;12.15;9.23;;;;;;;14.65;100.00;99824.38;5105698;28;20028;-69
2023/05/16 04:31:50;;;;;;;10.05;8.50;;;;;;;14.65;100.00;99818.97;5098228;28;20028;-69
2023/05/16 04:34:16;;;;;;;15.02;8.45;;;;;;;14.58;100.00;99796.41;5110084;28;20162;-69
2023/05/16 04:36:42;;;;;;;10.85;8.50;;;;;;;14.61;100.00;99800.59;5110017;28;20063;-69
2023/05/16 04:39:07;;;;;;;10.77;9.02;;;;;;;14.68;100.00;99817.78;5109442;28;20102;-70
2023/05/16 04:41:35;;;;;;;10.20;8.68;;;;;;;14.57;100.00;99793.88;5109438;28;20030;-69
2023/05/16 04:44:03;;;;;;;10.68;8.90;;;;;;;14.69;100.00;99814.06;5107846;28;20019;-69
2023/05/16 04:46:28;;;;;;;10.48;8.93;;;;;;;14.71;100.00;99815.59;5107529;28;20082;-69
2023/05/16 04:48:54;;;;;;;10.43;8.85;;;;;;;14.64;100.00;99809.19;5109332;28;20058;-69
2023/05/16 04:51:20;;;;;;;11.18;8.63;;;;;;;14.71;100.00;99823.69;5108961;28;20043;-69
2023/05/16 04:53:46;;;;;;;11.85;8.98;;;;;;;14.53;100.00;99790.66;5109746;28;20103;-69
2023/05/16 04:56:11;;;;;;;12.20;10.07;;;;;;;14.73;100.00;99829.75;5109320;28;20496;-69
2023/05/16 04:58:37;;;;;;;11.07;8.95;;;;;;;14.64;100.00;99811.88;5109082;28;20459;-68
2023/05/16 05:01:03;;;;;;;12.07;9.45;;;;;;;14.75;100.00;99830.41;5112760;28;20030;-69
2023/05/16 05:03:28;;;;;;;12.65;10.57;;;;;;;14.71;100.00;99834.50;5113135;28;20115;-68
2023/05/16 05:05:53;;;;;;;11.65;9.85;;;;;;;14.75;100.00;99840.38;5112969;28;20038;-68
2023/05/16 05:08:20;;;;;;;12.57;9.82;;;;;;;14.75;100.00;99838.53;5112380;28;20038;-68
2023/05/16 05:10:45;;;;;;;13.95;10.88;;;;;;;14.78;100.00;99837.31;5112865;28;20028;-68
2023/05/16 05:13:11;;;;;;;13.05;10.13;;;;;;;14.80;100.00;99855.03;5112717;28;20045;-68
2023/05/16 05:15:36;;;;;;;14.93;10.82;;;;;;;14.83;100.00;99856.56;5113689;28;20104;-68
2023/05/16 05:18:02;;;;;;;14.43;10.60;;;;;;;14.81;100.00;99847.78;5114066;28;20098;-68
2023/05/16 05:20:27;;;;;;;12.88;10.65;;;;;;;14.83;100.00;99843.88;5114331;28;20052;-69
2023/05/16 05:22:53;;;;;;;15.80;11.10;;;;;;;14.57;100.00;99808.19;5102184;28;20173;-69
2023/05/16 05:25:18;;;;;;;16.08;11.93;;;;;;;14.82;100.00;99852.16;5113864;28;20377;-68
2023/05/16 05:27:45;;;;;;;15.00;11.32;;;;;;;14.68;100.00;99815.09;5103721;28;20043;-69
2023/05/16 05:30:11;;;;;;;13.48;10.85;;;;;;;14.83;100.00;99832.25;5112932;28;20016;-69
2023/05/16 05:32:36;;;;;;;13.40;10.65;;;;;;;14.71;100.00;99826.41;5113961;28;20042;-69
2023/05/16 05:35:03;;;;;;;13.82;10.40;;;;;;;14.76;100.00;99824.00;5103871;28;20027;-69
2023/05/16 05:37:29;;;;;;;14.43;11.15;;;;;;;14.87;100.00;99839.00;5113971;28;20455;-69
2023/05/16 05:39:55;;;;;;;13.95;10.77;;;;;;;14.84;100.00;99842.03;5113552;28;20035;-69
2023/05/16 05:42:20;;;;;;;14.93;11.27;;;;;;;14.65;100.00;99810.03;5113983;28;20391;-69
2023/05/16 05:44:46;;;;;;;13.63;11.52;;;;;;;14.82;100.00;99839.50;5114348;28;20027;-68
2023/05/16 05:47:12;;;;;;;15.50;10.80;;;;;;;14.82;100.00;99838.66;5114271;28;20024;-68
2023/05/16 05:49:37;;;;;;;14.82;11.43;;;;;;;14.82;100.00;99841.34;5113382;28;20115;-69
2023/05/16 05:52:03;;;;;;;13.55;11.00;;;;;;;14.87;100.00;99837.13;5114135;28;20030;-69
2023/05/16 05:54:29;;;;;;;13.55;10.82;;;;;;;14.80;100.00;99825.34;5104000;28;20027;-68
2023/05/16 05:56:56;;;;;;;16.13;10.77;;;;;;;14.85;100.00;99835.59;5113507;28;20089;-69
2023/05/16 05:59:21;;;;;;;17.05;11.07;;;;;;;14.83;100.00;99833.09;5115075;27;20031;-68
2023/05/16 06:01:51;;;;;;;14.40;11.25;;;;;;;14.85;100.00;99835.59;5112108;28;20049;-68
2023/05/16 06:04:17;;;;;;;15.05;10.88;;;;;;;14.89;100.00;99835.09;5114647;28;20032;-69
2023/05/16 06:06:43;;;;;;;16.55;12.05;;;;;;;14.85;100.00;99835.59;5097534;28;20048;-69
2023/05/16 06:09:08;;;;;;;18.05;11.43;;;;;;;14.76;100.00;99815.91;5116672;28;20036;-69
2023/05/16 06:11:34;;;;;;;14.82;11.55;;;;;;;14.85;100.00;99833.75;5115637;28;20130;-69
2023/05/16 06:13:59;;;;;;;15.55;11.95;;;;;;;14.72;100.00;99808.31;5105615;28;20034;-64
2023/05/16 06:16:25;;;;;;;14.95;11.98;;;;;;;14.79;100.00;99802.06;5107635;28;20381;-62
2023/05/16 06:18:51;;;;;;;15.05;11.65;;;;;;;14.79;100.00;99798.50;5098210;28;20035;-64
2023/05/16 06:21:16;;;;;;;15.63;12.35;;;;;;;14.89;100.00;99808.09;5110955;28;20504;-64
2023/05/16 06:23:41;;;;;;;17.23;12.50;;;;;;;14.89;100.00;99807.25;5110157;28;20082;-64
2023/05/16 06:26:07;;;;;;;14.52;10.43;;;;;;;14.85;100.00;99790.56;5110356;28;20066;-64
2023/05/16 06:28:32;;;;;;;14.75;10.43;;;;;;;14.83;100.00;99792.59;5110969;28;20459;-63
2023/05/16 06:30:58;;;;;;;13.57;9.43;;;;;;;14.93;100.00;99792.41;5110460;28;20050;-64
2023/05/16 06:33:23;;;;;;;12.02;9.82;;;;;;;14.85;100.00;99781.63;5101413;28;20035;-64
2023/05/16 06:35:49;;;;;;;11.48;9.30;;;;;;;14.95;100.00;99784.94;5111172;28;20050;-64
2023/05/16 06:38:14;;;;;;;12.63;8.88;;;;;;;14.94;100.00;99781.44;5111063;28;20031;-64
2023/05/16 06:40:40;;;;;;;14.35;8.77;;;;;;;14.96;100.00;99778.53;5110530;28;20417;-64
2023/05/16 06:43:05;;;;;;;10.00;8.18;;;;;;;14.93;100.00;99781.59;5107835;28;20023;-63
2023/05/16 06:45:31;;;;;;;10.70;7.90;;;;;;;14.96;100.00;99790.16;5110585;28;20043;-65
2023/05/16 06:47:57;;;;;;;12.13;7.80;;;;;;;14.98;100.00;99774.66;5111278;28;20027;-64
2023/05/16 06:50:22;;;;;;;8.48;7.30;;;;;;;15.06;100.00;99789.97;5110875;28;20673;-64
2023/05/16 06:52:48;;;;;;;8.93;7.18;;;;;;;15.01;100.00;99777.00;5110822;28;20601;-64
2023/05/16 06:55:13;;;;;;;9.85;6.45;;;;;;;15.09;100.00;99774.25;5110733;28;20027;-64
2023/05/16 06:57:39;;;;;;;7.47;5.97;;;;;;;15.11;100.00;99772.22;5111141;28;20420;-64
2023/05/16 07:00:05;;;;;;;7.05;5.90;;;;;;;15.08;100.00;99767.16;5100965;28;20456;-64
2023/05/16 07:02:31;;;;;;;11.05;6.88;;;;;;;15.02;100.00;99748.09;5111170;28;20035;-64
2023/05/16 07:04:56;;;;;;;5.88;5.28;;;;;;;15.21;100.00;99766.59;5110420;28;20027;-64
2023/05/16 07:07:22;;;;;;;6.68;5.97;;;;;;;15.05;100.00;99743.22;5111035;28;20019;-64
2023/05/16 07:09:47;;;;;;;7.13;5.80;;;;;;;15.23;100.00;99764.56;5111095;28;20028;-64
2023/05/16 07:12:13;;;;;;;7.88;6.00;;;;;;;15.21;100.00;99761.19;5110382;28;20031;-65
2023/05/16 07:14:39;;;;;;;6.97;6.15;;;;;;;15.22;100.00;99755.59;5110524;28;20035;-64
2023/05/16 07:17:05;;;;;;;6.78;6.07;;;;;;;15.24;100.00;99761.69;5110625;28;20055;-62
2023/05/16 07:19:30;;;;;;;6.50;5.78;;;;;;;15.02;100.00;99710.31;5109615;28;20111;-64
2023/05/16 07:21:56;;;;;;;7.28;6.13;;;;;;;15.28;100.00;99757.59;5109287;28;20058;-64
2023/05/16 07:24:21;;;;;;;7.75;6.45;;;;;;;15.27;100.00;99761.31;5110069;28;20020;-64
2023/05/16 07:26:47;;;;;;;8.82;6.88;;;;;;;15.36;100.00;99779.22;5110042;28;20075;-64
2023/05/16 07:29:12;;;;;;;8.40;6.95;;;;;;;15.37;100.00;99778.19;5110032;28;20168;-64
2023/05/16 07:31:38;;;;;;;12.57;7.55;;;;;;;15.28;100.00;99771.09;5110457;28;20031;-64
2023/05/16 07:34:03;;;;;;;8.38;7.47;;;;;;;15.26;100.00;99767.72;5098622;28;20128;-64
2023/05/16 07:36:29;;;;;;;10.35;8.35;;;;;;;15.38;100.00;99790.66;5110213;28;20035;-64
2023/05/16 07:38:54;;;;;;;9.82;7.88;;;;;;;15.43;100.00;99782.03;5110128;28;20030;-64
2023/05/16 07:41:20;;;;;;;11.50;8.48;;;;;;;15.43;100.00;99779.31;5110355;28;20087;-64
2023/05/16 07:43:45;;;;;;;10.68;9.05;;;;;;;15.28;100.00;99752.19;5109854;28;20035;-63
2023/05/16 07:46:11;;;;;;;10.57;8.88;;;;;;;15.36;100.00;99746.78;5109990;28;20027;-64
2023/05/16 07:48:36;;;;;;;10.95;9.20;;;;;;;15.44;100.00;99754.81;5109528;28;20043;-64
2023/05/16 07:51:02;;;;;;;11.27;8.68;;;;;;;15.40;100.00;99733.72;5109747;28;20020;-64
2023/05/16 07:53:28;;;;;;;12.98;9.35;;;;;;;15.45;100.00;99725.94;5109997;28;20050;-65
2023/05/16 07:55:53;;;;;;;13.35;9.40;;;;;;;15.34;100.00;99710.94;5110095;28;20094;-65
2023/05/16 07:58:18;;;;;;;14.50;10.43;;;;;;;15.48;100.00;99739.91;5110135;28;20046;-63
2023/05/16 08:00:44;;;;;;;17.67;10.07;;;;;;;15.44;100.00;99729.66;5109699;28;20026;-64
2023/05/16 08:03:10;;;;;;;12.25;9.63;;;;;;;15.51;100.00;99747.66;5109963;28;20019;-65
2023/05/16 08:05:35;;;;;;;14.88;9.75;;;;;;;15.38;100.00;99731.22;5110427;28;20115;-64
2023/05/16 08:08:07;;;;;;;13.05;9.75;;;;;;;15.52;100.00;99762.03;5105842;28;20028;-65
2023/05/16 08:10:33;;;;;;;13.68;10.00;;;;;;;15.53;100.00;99759.16;5109019;28;20103;-65
2023/05/16 08:12:58;;;;;;;14.50;10.43;;;;;;;15.51;100.00;99736.84;5109278;28;20063;-62
2023/05/16 08:15:25;;;;;;;12.82;10.15;;;;;;;15.55;100.00;99742.75;5109734;28;20073;-62
2023/05/16 08:17:50;;;;;;;13.30;9.82;;;;;;;15.58;100.00;99737.00;5109256;28;20069;-64
2023/05/16 08:20:16;;;;;;;12.73;9.93;;;;;;;15.71;100.00;99753.44;5109185;28;20023;-64
2023/05/16 08:22:41;;;;;;;14.80;11.13;;;;;;;15.72;100.00;99757.81;5109984;28;20032;-64
2023/05/16 08:25:07;;;;;;;17.58;11.35;;;;;;;15.77;100.00;99763.53;5109779;28;20110;-64
2023/05/16 08:27:33;;;;;;;15.43;10.93;;;;;;;15.80;100.00;99765.84;5107219;28;20100;-64
2023/05/16 08:29:59;;;;;;;16.70;10.60;;;;;;;15.83;100.00;99774.47;5109485;28;20032;-63
2023/05/16 08:32:24;;;;;;;14.65;10.57;;;;;;;15.86;100.00;99763.28;5110038;28;20484;-70
2023/05/16 08:34:50;;;;;;;14.68;11.02;;;;;;;15.84;100.00;99746.38;5112930;28;20414;-69
2023/05/16 08:37:15;;;;;;;14.30;10.80;;;;;;;15.79;100.00;99732.59;5112986;28;20040;-69
2023/05/16 08:39:41;;;;;;;13.65;10.63;;;;;;;15.93;100.00;99741.78;5114799;28;20375;-69
2023/05/16 08:42:07;;;;;;;16.70;11.20;;;;;;;15.82;100.00;99728.66;5102377;28;20472;-69
2023/05/16 08:44:33;;;;;;;13.02;11.18;;;;;;;15.93;100.00;99751.75;5114878;28;20102;-70
2023/05/16 08:47:10;;;;;;;14.15;11.48;;;;;;;15.89;100.00;99746.69;5114596;28;20031;-69
2023/05/16 08:49:38;;;;;;;13.25;11.45;;;;;;;15.93;100.00;99743.63;5114467;28;20460;-70
2023/05/16 08:52:07;;;;;;;17.73;11.35;;;;;;;15.77;100.00;99713.00;5114383;28;20031;-69
2023/05/16 08:54:33;;;;;;;16.35;12.10;;;;;;;15.94;100.00;99743.44;5113939;28;20050;-69
2023/05/16 08:57:01;;;;;;;15.02;10.88;;;;;;;15.96;100.00;99735.16;5114950;28;20030;-69
2023/05/16 08:59:27;;;;;;;17.20;11.88;;;;;;;16.01;100.00;99732.72;5113135;28;20388;-69
2023/05/16 09:01:54;;;;;;;16.10;10.85;;;;;;;16.01;100.00;99738.13;5113282;27;20015;-69
2023/05/16 09:04:19;;;;;;;16.75;11.43;;;;;;;16.03;100.00;99738.81;5113350;28;20032;-69
2023/05/16 09:06:45;;;;;;;14.43;10.88;;;;;;;15.97;100.00;99737.69;5113170;28;20396;-69
2023/05/16 09:09:11;;;;;;;13.45;10.13;;;;;;;16.06;100.00;99730.31;5113385;28;20424;-69
2023/05/16 09:11:38;;;;;;;12.68;10.63;;;;;;;16.09;100.00;99744.31;5107969;28;20046;-69
2023/05/16 09:14:04;;;;;;;12.75;10.32;;;;;;;15.93;100.00;99714.72;5105806;28;20051;-65
2023/05/16 09:16:30;;;;;;;15.50;10.38;;;;;;;16.08;100.00;99729.09;5113155;28;20043;-64
2023/05/16 09:19:00;;;;;;;15.57;10.50;;;;;;;16.14;100.00;99735.63;5095088;28;20436;-69
2023/05/16 09:21:30;;;;;;;13.45;10.80;;;;;;;16.18;100.00;99736.97;5111754;28;20107;-69
2023/05/16 09:23:56;;;;;;;13.90;10.07;;;;;;;16.19;100.00;99744.06;5113918;28;20024;-70
2023/05/16 09:26:22;;;;;;;15.45;9.80;;;;;;;16.19;100.00;99730.53;5113450;28;20047;-69
2023/05/16 09:28:47;;;;;;;13.15;9.85;;;;;;;16.17;100.00;99738.81;5113787;28;20086;-70
2023/05/16 09:31:35;;;;;;;13.98;10.77;;;;;;;16.14;100.00;99730.22;5113029;28;20032;-69
2023/05/16 09:34:01;;;;;;;13.85;10.80;;;;;;;16.21;100.00;99741.97;5112963;28;20042;-64
2023/05/16 09:36:26;;;;;;;14.63;10.15;;;;;;;16.27;100.00;99752.06;5112978;28;20394;-64
2023/05/16 09:38:52;;;;;;;13.73;10.85;;;;;;;16.31;100.00;99753.41;5112834;28;20028;-64
2023/05/16 09:41:20;;;;;;;14.32;10.18;;;;;;;16.30;100.00;99754.41;5112911;28;20028;-63
2023/05/16 09:43:45;;;;;;;13.07;10.35;;;;;;;16.33;100.00;99765.72;5111250;28;20610;-64
2023/05/16 09:46:13;;;;;;;13.82;9.98;;;;;;;16.37;100.00;99766.19;5111824;28;20035;-64
2023/05/16 09:48:48;;;;;;;15.23;10.43;;;;;;;16.31;100.00;99751.53;5108551;28;20031;-64
2023/05/16 09:51:14;;;;;;;12.93;10.23;;;;;;;16.42;100.00;99763.78;5112789;28;20039;-64
2023/05/16 09:53:40;;;;;;;13.45;10.00;;;;;;;16.44;100.00;99756.34;5112754;28;20086;-64
2023/05/16 09:56:11;;;;;;;18.13;10.77;;;;;;;16.29;100.00;99731.94;5099663;28;20508;-64
2023/05/16 09:58:38;;;;;;;15.88;10.75;;;;;;;16.39;100.00;99724.38;5112591;28;20024;-66
2023/05/16 10:01:04;;;;;;;17.35;11.02;;;;;;;16.47;100.00;99720.78;5112325;28;20072;-64
2023/05/16 10:03:31;;;;;;;16.50;10.15;;;;;;;16.51;100.00;99708.56;5112400;28;20035;-64
2023/05/16 10:05:58;;;;;;;17.15;11.23;;;;;;;16.53;100.00;99712.75;5112028;28;20526;-63
2023/05/16 10:08:25;;;;;;;13.38;10.98;;;;;;;16.60;100.00;99727.22;5112460;28;20531;-64
2023/05/16 10:10:55;;;;;;;12.90;10.02;;;;;;;16.57;100.00;99718.63;5112004;28;20663;-64
2023/05/16 10:13:27;;;;;;;17.17;10.93;;;;;;;16.59;100.00;99703.03;5109792;28;20031;-64
2023/05/16 10:15:56;;;;;;;14.55;10.98;;;;;;;16.68;100.00;99704.63;5112307;28;20030;-65
2023/05/16 10:18:27;;;;;;;14.73;10.30;;;;;;;16.73;100.00;99694.06;5104974;28;20023;-65
2023/05/16 10:20:55;;;;;;;13.00;10.38;;;;;;;16.84;100.00;99693.56;5112421;28;20046;-64
2023/05/16 10:23:25;;;;;;;16.77;11.10;;;;;;;16.74;100.00;99664.09;5112177;28;20036;-64
2023/05/16 10:25:51;;;;;;;15.35;10.52;;;;;;;16.90;100.00;99680.09;5111705;28;20108;-64
2023/05/16 10:28:17;;;;;;;13.40;10.00;;;;;;;16.95;100.00;99665.97;5111991;28;20472;-65
2023/05/16 10:30:45;;;;;;;15.20;11.02;;;;;;;16.96;100.00;99654.94;5105730;28;20016;-65
2023/05/16 10:33:16;;;;;;;16.35;11.23;;;;;;;17.01;100.00;99647.09;5111789;28;20037;-64
2023/05/16 10:35:43;;;;;;;22.48;12.43;;;;;;;17.09;100.00;99660.50;5110551;28;20042;-65
2023/05/16 10:38:10;;;;;;;15.13;11.50;;;;;;;17.08;100.00;99637.16;5111623;28;20391;-64
2023/05/16 10:40:37;;;;;;;18.35;11.05;;;;;;;17.24;100.00;99652.34;5111568;28;20062;-65
2023/05/16 10:43:05;;;;;;;15.98;11.07;;;;;;;17.28;100.00;99643.63;5111458;28;20028;-65
2023/05/16 10:45:30;;;;;;;16.13;12.38;;;;;;;17.31;100.00;99636.97;5109466;28;20031;-64
2023/05/16 10:47:58;;;;;;;18.05;11.88;;;;;;;17.44;100.00;99629.84;5111558;28;20033;-64
2023/05/16 10:50:37;;;;;;;18.55;12.05;;;;;;;17.38;100.00;99602.66;5111524;28;20035;-69
2023/05/16 10:53:28;;;;;;;16.80;11.18;;;;;;;17.68;100.00;99639.44;5111322;28;20027;-70
2023/05/16 10:56:02;;;;;;;14.57;10.45;;;;;;;17.67;100.00;99651.31;5112696;28;20047;-70
2023/05/16 10:58:39;;;;;;;14.88;10.05;;;;;;;17.66;100.00;99647.75;5111296;28;20110;-65
2023/05/16 11:01:23;;;;;;;19.38;10.23;;;;;;;17.76;100.00;99637.41;5111185;28;20112;-65
2023/05/16 11:03:58;;;;;;;19.50;10.43;;;;;;;17.83;100.00;99635.59;5111268;28;20095;-64
2023/05/16 11:06:27;;;;;;;17.08;10.90;;;;;;;17.79;100.00;99617.19;5111126;28;20027;-64
2023/05/16 11:09:08;;;;;;;14.65;9.98;;;;;;;17.84;100.00;99612.84;5111084;28;20143;-64
2023/05/16 11:11:52;;;;;;;15.90;9.98;;;;;;;17.88;100.00;99610.56;5111036;28;20034;-65